Time;durP1;ratioP1;P1;durP2;ratioP2;P2;SDS_P1;SDS_P2;PMS_P1;PMS_P2;Temp;Humidity;BMP_temperature;BMP_pressure;BME280_temperature;BME280_humidity;BME280_pressure;Samples;Min_cycle;Max_cycle;Signal;HPM_P1;HPM_P2
2022/01/10 00:00:54;;;;;;;44.20;12.15;;;-1.40;94.20;;;;;;5078179;28;20068;-76
2022/01/10 00:03:23;;;;;;;27.40;8.65;;;-1.40;94.70;;;;;;5079112;28;20059;-77
2022/01/10 00:05:51;;;;;;;22.63;7.55;;;-1.40;95.00;;;;;;5083078;28;20747;-75
2022/01/10 00:08:18;;;;;;;27.67;8.00;;;-1.40;95.00;;;;;;5063108;28;20136;-75
2022/01/10 00:10:45;;;;;;;24.48;7.28;;;-1.40;95.00;;;;;;5086498;28;20041;-75
2022/01/10 00:13:12;;;;;;;19.98;7.63;;;-1.50;94.70;;;;;;5061348;28;20104;-78
2022/01/10 00:15:39;;;;;;;13.90;7.07;;;-1.50;94.40;;;;;;5084108;28;20120;-75
2022/01/10 00:18:05;;;;;;;16.08;6.70;;;-1.50;94.20;;;;;;5080303;28;20113;-75
2022/01/10 00:20:32;;;;;;;26.95;7.20;;;-1.50;94.10;;;;;;5084917;28;20041;-77
2022/01/10 00:22:59;;;;;;;15.93;6.20;;;-1.60;94.00;;;;;;5078745;28;20057;-75
2022/01/10 00:25:26;;;;;;;21.60;6.60;;;-1.60;93.80;;;;;;5086463;28;20867;-75
2022/01/10 00:27:56;;;;;;;22.15;8.60;;;-1.60;93.80;;;;;;5085387;28;20037;-75
2022/01/10 00:30:24;;;;;;;27.38;9.73;;;-1.70;93.80;;;;;;5077555;28;20508;-74
2022/01/10 00:32:52;;;;;;;21.60;8.93;;;-1.60;94.50;;;;;;5085561;28;20496;-74
2022/01/10 00:35:19;;;;;;;18.65;8.15;;;-1.60;94.80;;;;;;5087180;28;20055;-75
2022/01/10 00:37:46;;;;;;;17.98;6.85;;;-1.60;94.70;;;;;;5069905;28;20549;-74
2022/01/10 00:40:17;;;;;;;21.35;8.15;;;-1.60;94.60;;;;;;5082640;28;20049;-74
2022/01/10 00:42:54;;;;;;;18.13;7.70;;;-1.70;94.40;;;;;;5060987;28;20895;-73
2022/01/10 00:45:23;;;;;;;17.08;7.03;;;-1.70;94.30;;;;;;5079721;28;20068;-75
2022/01/10 00:47:52;;;;;;;17.77;7.78;;;-1.70;94.40;;;;;;5080038;28;20854;-73
2022/01/10 00:50:19;;;;;;;19.60;6.90;;;-1.70;94.30;;;;;;5073263;28;20049;-74
2022/01/10 00:52:45;;;;;;;22.15;6.97;;;-1.70;94.10;;;;;;5069321;28;20053;-74
2022/01/10 00:55:12;;;;;;;17.90;7.32;;;-1.70;94.00;;;;;;5073942;28;20559;-74
2022/01/10 00:57:42;;;;;;;15.07;7.70;;;-1.70;93.80;;;;;;5073755;28;20049;-74
2022/01/10 01:00:15;;;;;;;12.75;7.25;;;-1.70;93.80;;;;;;5071265;28;20041;-74
2022/01/10 01:02:47;;;;;;;23.23;8.50;;;-1.80;94.00;;;;;;5074684;28;20065;-76
2022/01/10 01:05:20;;;;;;;19.73;7.45;;;-1.70;94.00;;;;;;5073567;28;20779;-77
2022/01/10 01:07:48;;;;;;;16.83;7.10;;;-1.80;94.00;;;;;;5073311;28;20037;-73
2022/01/10 01:13:01;;;;;;;27.13;9.98;;;-1.80;93.80;;;;;;5069246;28;20060;-74
2022/01/10 01:15:33;;;;;;;27.35;10.48;;;-1.70;94.30;;;;;;5078924;28;20063;-74
2022/01/10 01:26:01;;;;;;;18.40;9.05;;;-1.70;94.70;;;;;;5069527;28;20076;-74
2022/01/10 01:28:29;;;;;;;21.95;10.05;;;-1.80;94.60;;;;;;5068893;28;20048;-74
2022/01/10 01:30:56;;;;;;;22.42;8.65;;;-1.80;94.40;;;;;;5079998;28;20056;-74
2022/01/10 01:33:24;;;;;;;27.42;10.10;;;-1.80;94.40;;;;;;5080846;28;20079;-74
2022/01/10 01:35:52;;;;;;;25.95;10.10;;;-1.80;94.30;;;;;;5078947;28;21319;-75
2022/01/10 01:38:19;;;;;;;23.85;9.93;;;-1.80;94.40;;;;;;5075925;28;20053;-73
2022/01/10 01:40:57;;;;;;;30.88;10.80;;;-1.80;94.40;;;;;;5086057;28;20049;-74
2022/01/10 01:43:23;;;;;;;31.90;12.20;;;-1.80;94.30;;;;;;5078041;28;20918;-74
2022/01/10 01:45:51;;;;;;;33.60;12.85;;;-1.80;94.70;;;;;;5059232;28;20846;-74
2022/01/10 01:48:18;;;;;;;20.63;10.77;;;-1.80;94.90;;;;;;5073394;28;20057;-74
2022/01/10 01:50:47;;;;;;;17.40;9.63;;;-1.80;94.90;;;;;;5073500;28;20073;-74
2022/01/10 01:53:16;;;;;;;27.60;11.20;;;-1.80;94.90;;;;;;5070627;28;20776;-75
2022/01/10 01:55:44;;;;;;;24.35;11.43;;;-1.90;94.60;;;;;;5076199;28;20076;-75
2022/01/10 01:58:17;;;;;;;23.40;11.43;;;-1.90;94.60;;;;;;5077199;28;20941;-74
2022/01/10 02:00:47;;;;;;;29.88;11.70;;;-1.90;94.40;;;;;;5075810;28;20900;-74
2022/01/10 02:03:17;;;;;;;31.83;12.80;;;-1.90;94.40;;;;;;5077038;28;20057;-74
2022/01/10 02:05:47;;;;;;;27.15;13.02;;;-1.90;94.30;;;;;;5053661;28;20087;-74
2022/01/10 02:08:13;;;;;;;29.65;12.45;;;-1.90;94.30;;;;;;5070312;28;20032;-75
2022/01/10 02:10:44;;;;;;;24.25;11.55;;;-1.90;94.30;;;;;;5076364;28;20060;-74
2022/01/10 02:13:11;;;;;;;30.55;11.32;;;-1.90;94.30;;;;;;5068357;28;20084;-74
2022/01/10 02:15:50;;;;;;;36.85;15.13;;;-2.00;94.20;;;;;;5081761;28;20462;-74
2022/01/10 02:18:18;;;;;;;35.45;13.30;;;-2.00;94.10;;;;;;5077565;28;20061;-74
2022/01/10 02:20:46;;;;;;;49.40;15.63;;;-1.80;94.90;;;;;;5085545;28;20055;-74
2022/01/10 02:23:17;;;;;;;34.55;14.70;;;-1.70;95.50;;;;;;5073848;28;20077;-74
2022/01/10 02:25:45;;;;;;;29.15;12.63;;;-1.70;95.60;;;;;;5079272;28;20062;-75
2022/01/10 02:28:12;;;;;;;27.27;12.57;;;-1.70;95.40;;;;;;5086905;28;20131;-74
2022/01/10 02:30:41;;;;;;;31.35;13.88;;;-1.80;95.20;;;;;;5075925;28;20049;-77
2022/01/10 02:33:08;;;;;;;23.20;11.18;;;-1.80;95.10;;;;;;5067869;28;20041;-74
2022/01/10 02:35:55;;;;;;;24.45;11.00;;;-1.80;95.00;;;;;;5088576;28;20962;-73
2022/01/10 02:38:22;;;;;;;31.42;10.30;;;-1.90;94.60;;;;;;5074548;28;20083;-75
2022/01/10 02:40:50;;;;;;;28.83;11.68;;;-1.90;94.40;;;;;;5081714;28;20924;-75
2022/01/10 02:43:18;;;;;;;29.15;11.73;;;-2.00;94.50;;;;;;5077326;28;20077;-74
2022/01/10 02:45:48;;;;;;;30.52;12.00;;;-2.00;94.50;;;;;;5071730;28;20079;-74
2022/01/10 02:48:15;;;;;;;26.90;11.85;;;-2.00;94.70;;;;;;5084625;28;20101;-74
2022/01/10 02:50:42;;;;;;;34.70;11.55;;;-2.00;94.80;;;;;;5075773;28;20835;-76
2022/01/10 02:53:09;;;;;;;51.10;13.65;;;-2.00;94.90;;;;;;5082887;28;20057;-75
2022/01/10 02:55:35;;;;;;;38.70;14.00;;;-1.90;94.90;;;;;;5084178;28;20143;-75
2022/01/10 02:58:02;;;;;;;37.63;13.80;;;-1.90;95.00;;;;;;5073605;28;20084;-76
2022/01/10 03:00:29;;;;;;;34.53;13.50;;;-1.90;95.10;;;;;;5078062;28;20049;-74
2022/01/10 03:02:57;;;;;;;31.55;13.05;;;-1.90;95.10;;;;;;5081984;28;20052;-75
2022/01/10 03:05:25;;;;;;;28.48;12.73;;;-1.90;95.10;;;;;;5082886;28;20041;-74
2022/01/10 03:07:58;;;;;;;35.05;13.60;;;-1.90;95.10;;;;;;5071541;28;20073;-74
2022/01/10 03:10:25;;;;;;;32.67;12.00;;;-1.90;95.10;;;;;;5077444;28;20136;-74
2022/01/10 03:12:52;;;;;;;28.75;12.85;;;-2.00;95.10;;;;;;5078796;28;20045;-74
2022/01/10 03:15:19;;;;;;;26.08;11.48;;;-1.90;95.10;;;;;;5082529;28;20057;-76
2022/01/10 03:17:45;;;;;;;30.67;12.30;;;-2.00;95.00;;;;;;5062829;28;20044;-75
2022/01/10 03:20:12;;;;;;;38.10;12.77;;;-1.90;94.90;;;;;;5086248;28;20088;-74
2022/01/10 03:22:41;;;;;;;31.15;12.05;;;-2.00;94.80;;;;;;5086884;28;20107;-74
2022/01/10 03:25:08;;;;;;;30.45;12.57;;;-2.00;94.70;;;;;;5068585;28;20084;-74
2022/01/10 03:27:34;;;;;;;34.20;13.45;;;-2.00;94.60;;;;;;5077803;28;20045;-73
2022/01/10 03:30:02;;;;;;;51.63;16.15;;;-2.00;94.70;;;;;;5073902;28;20057;-74
2022/01/10 03:32:29;;;;;;;43.13;15.57;;;-2.00;94.80;;;;;;5079744;28;20059;-75
2022/01/10 03:35:00;;;;;;;33.95;13.65;;;-2.00;94.80;;;;;;5081104;28;20550;-73
2022/01/10 03:37:27;;;;;;;36.70;12.98;;;-2.00;94.80;;;;;;5087246;28;20086;-74
2022/01/10 03:39:53;;;;;;;33.03;13.52;;;-2.10;94.70;;;;;;5071363;28;20520;-75
2022/01/10 03:42:20;;;;;;;35.88;14.00;;;-2.10;94.70;;;;;;5074636;28;20052;-74
2022/01/10 03:44:47;;;;;;;54.42;19.40;;;-2.10;94.70;;;;;;5082713;28;20049;-75
2022/01/10 03:47:18;;;;;;;30.08;14.63;;;-2.00;95.10;;;;;;5078008;28;20037;-74
2022/01/10 03:49:45;;;;;;;32.85;14.27;;;-2.00;95.20;;;;;;5067529;28;20045;-74
2022/01/10 03:52:12;;;;;;;37.13;14.27;;;-2.10;95.10;;;;;;5069820;28;20049;-74
2022/01/10 03:54:38;;;;;;;38.50;14.43;;;-2.10;95.00;;;;;;5078546;28;20043;-74
2022/01/10 03:57:06;;;;;;;35.53;14.35;;;-2.10;95.00;;;;;;5077208;28;20081;-74
2022/01/10 03:59:33;;;;;;;34.70;16.40;;;-2.10;94.80;;;;;;5074228;28;20137;-74
2022/01/10 04:02:00;;;;;;;32.53;14.95;;;-2.10;95.00;;;;;;5079854;28;20100;-76
2022/01/10 04:04:27;;;;;;;38.40;14.82;;;-2.10;95.00;;;;;;5084162;28;20041;-76
2022/01/10 04:06:53;;;;;;;62.95;21.25;;;-2.10;95.00;;;;;;5080142;28;20202;-73
2022/01/10 04:09:21;;;;;;;41.55;18.45;;;-2.10;95.20;;;;;;5080312;28;20037;-73
2022/01/10 04:11:49;;;;;;;51.90;18.90;;;-2.10;95.20;;;;;;5068035;28;20053;-75
2022/01/10 04:14:19;;;;;;;36.92;15.75;;;-2.10;95.30;;;;;;5077945;28;20097;-74
2022/01/10 04:16:45;;;;;;;45.20;18.48;;;-2.20;95.20;;;;;;5080992;28;20049;-75
2022/01/10 04:19:12;;;;;;;32.53;16.60;;;-2.10;95.10;;;;;;5083301;28;20041;-75
2022/01/10 04:21:39;;;;;;;49.03;18.33;;;-2.10;95.10;;;;;;5082379;28;20117;-74
2022/01/10 04:24:05;;;;;;;35.50;16.45;;;-2.10;95.10;;;;;;5078516;28;20435;-76
2022/01/10 04:26:32;;;;;;;39.50;17.48;;;-2.00;95.10;;;;;;5080208;28;20048;-74
2022/01/10 04:28:59;;;;;;;36.92;17.58;;;-2.00;95.10;;;;;;5078210;28;20136;-75
2022/01/10 04:31:25;;;;;;;57.97;25.23;;;-1.90;95.20;;;;;;5084237;28;20047;-73
2022/01/10 04:33:52;;;;;;;70.60;26.50;;;-1.80;95.30;;;;;;5074060;28;20056;-74
2022/01/10 04:36:19;;;;;;;57.15;22.83;;;-1.70;95.70;;;;;;5072062;28;20052;-74
2022/01/10 04:38:46;;;;;;;54.88;23.52;;;-1.50;95.90;;;;;;5078596;28;20053;-74
2022/01/10 04:41:13;;;;;;;58.42;26.00;;;-1.50;96.00;;;;;;5083045;28;20825;-73
2022/01/10 04:43:41;;;;;;;48.80;21.42;;;-1.50;96.10;;;;;;5073854;28;20045;-74
2022/01/10 04:46:08;;;;;;;81.40;30.85;;;-1.40;96.10;;;;;;5076019;28;20083;-75
2022/01/10 04:48:35;;;;;;;55.90;23.85;;;-1.30;96.20;;;;;;5070394;28;20133;-75
2022/01/10 04:51:15;;;;;;;55.40;22.75;;;-1.20;96.40;;;;;;5068612;28;20049;-73
2022/01/10 04:53:45;;;;;;;66.07;24.50;;;-1.20;96.40;;;;;;5074194;28;20071;-74
2022/01/10 04:56:17;;;;;;;69.72;25.73;;;-1.20;96.30;;;;;;5080683;28;20059;-74
2022/01/10 04:58:47;;;;;;;60.28;23.08;;;-1.20;96.20;;;;;;5078454;28;20121;-74
2022/01/10 05:01:17;;;;;;;57.70;23.20;;;-1.00;96.50;;;;;;5080040;28;20057;-74
2022/01/10 05:03:47;;;;;;;56.67;23.60;;;-1.00;96.50;;;;;;5080151;28;20048;-74
2022/01/10 05:06:20;;;;;;;59.55;23.50;;;-0.90;96.60;;;;;;5081713;28;20043;-75
2022/01/10 05:08:47;;;;;;;55.15;21.67;;;-0.80;96.70;;;;;;5051083;28;20121;-75
2022/01/10 05:11:17;;;;;;;53.20;21.63;;;-0.80;96.70;;;;;;5076086;28;20076;-74
2022/01/10 05:13:43;;;;;;;63.25;23.00;;;-0.80;96.60;;;;;;5097287;28;20459;-74
2022/01/10 05:16:10;;;;;;;63.08;24.02;;;-0.80;96.60;;;;;;5101948;28;20080;-74
2022/01/10 05:18:38;;;;;;;48.55;20.85;;;-0.70;96.60;;;;;;5104229;27;20041;-75
2022/01/10 05:21:05;;;;;;;65.10;21.58;;;-0.70;96.60;;;;;;5102975;27;20140;-74
2022/01/10 05:23:32;;;;;;;63.35;23.48;;;-0.70;96.60;;;;;;5098217;28;20090;-74
2022/01/10 05:25:59;;;;;;;64.28;23.02;;;-0.70;96.60;;;;;;5093864;28;20136;-74
2022/01/10 05:28:25;;;;;;;57.90;23.75;;;-0.60;96.70;;;;;;5093348;28;20143;-74
2022/01/10 05:30:55;;;;;;;63.47;22.67;;;-0.60;96.70;;;;;;5107756;27;21179;-74
2022/01/10 05:33:21;;;;;;;55.40;20.23;;;-0.60;96.70;;;;;;5106613;27;20052;-74
2022/01/10 05:35:48;;;;;;;55.22;19.63;;;-0.60;96.70;;;;;;5100739;28;20048;-74
2022/01/10 05:38:18;;;;;;;56.90;22.27;;;-0.60;96.70;;;;;;5091982;28;20068;-73
2022/01/10 05:40:44;;;;;;;82.30;25.80;;;-0.60;96.60;;;;;;5099377;28;20120;-75
2022/01/10 05:43:11;;;;;;;75.88;26.98;;;-0.50;96.70;;;;;;5100853;28;20135;-74
2022/01/10 05:45:43;;;;;;;53.80;23.10;;;-0.50;96.60;;;;;;5108134;28;20031;-74
2022/01/10 05:48:20;;;;;;;97.32;28.17;;;-0.50;96.70;;;;;;5101886;28;20058;-76
2022/01/10 05:50:48;;;;;;;86.70;27.30;;;-0.50;96.60;;;;;;5110538;27;20051;-74
2022/01/10 05:53:18;;;;;;;72.47;23.92;;;-0.50;96.60;;;;;;5111959;28;20155;-74
2022/01/10 05:55:45;;;;;;;59.63;24.38;;;-0.50;96.70;;;;;;5096494;28;20033;-74
2022/01/10 05:58:13;;;;;;;65.38;23.63;;;-0.50;96.70;;;;;;5100662;28;20148;-74
2022/01/10 06:00:42;;;;;;;75.28;24.90;;;-0.40;96.70;;;;;;5084713;28;20061;-76
2022/01/10 06:03:11;;;;;;;60.83;25.02;;;-0.40;96.60;;;;;;5100972;27;20059;-75
2022/01/10 06:05:39;;;;;;;65.95;25.23;;;-0.40;96.60;;;;;;5102922;28;20032;-74
2022/01/10 06:08:07;;;;;;;48.25;23.10;;;-0.40;96.60;;;;;;5106602;27;20101;-75
2022/01/10 06:10:35;;;;;;;70.93;25.73;;;-0.30;96.50;;;;;;5102475;28;20041;-74
2022/01/10 06:13:02;;;;;;;72.45;28.20;;;-0.30;96.50;;;;;;5091410;28;20044;-75
2022/01/10 06:15:29;;;;;;;75.13;28.05;;;-0.20;96.50;;;;;;5090465;28;20061;-75
2022/01/10 06:17:56;;;;;;;93.45;27.67;;;-0.20;96.60;;;;;;5082074;28;20049;-74
2022/01/10 06:20:23;;;;;;;89.43;29.05;;;-0.20;96.60;;;;;;5070927;28;20095;-74
2022/01/10 06:22:50;;;;;;;62.72;25.95;;;-0.20;96.60;;;;;;5084543;28;20620;-75
2022/01/10 06:25:24;;;;;;;67.82;24.83;;;-0.20;96.60;;;;;;5084960;28;20049;-76
2022/01/10 06:27:50;;;;;;;61.60;23.13;;;-0.10;96.60;;;;;;5082937;28;20055;-75
2022/01/10 06:30:17;;;;;;;63.85;24.77;;;-0.10;96.60;;;;;;5066179;28;20773;-76
2022/01/10 06:32:47;;;;;;;71.60;29.10;;;-0.10;96.50;;;;;;5080859;28;20060;-75
2022/01/10 06:35:17;;;;;;;91.53;30.70;;;-0.10;96.60;;;;;;5076644;28;20096;-74
2022/01/10 06:37:43;;;;;;;73.78;30.98;;;0.00;96.60;;;;;;5085223;28;20123;-74
2022/01/10 06:40:17;;;;;;;92.47;31.05;;;0.10;96.70;;;;;;5069994;28;20044;-76
2022/01/10 06:42:46;;;;;;;76.00;29.63;;;0.10;96.90;;;;;;5085635;28;20092;-74
2022/01/10 06:45:20;;;;;;;71.53;26.00;;;0.10;96.90;;;;;;5063749;28;20045;-75
2022/01/10 06:47:48;;;;;;;65.50;23.92;;;0.10;96.90;;;;;;5074093;28;20627;-74
2022/01/10 06:50:24;;;;;;;69.82;26.23;;;0.10;96.90;;;;;;5093077;28;20461;-74
2022/01/10 06:52:54;;;;;;;68.22;24.98;;;0.10;96.80;;;;;;5087666;28;20402;-74
2022/01/10 06:55:20;;;;;;;65.53;24.55;;;0.10;96.80;;;;;;5095532;28;20087;-75
2022/01/10 06:57:47;;;;;;;69.05;23.67;;;0.20;96.80;;;;;;5068047;28;20037;-74
2022/01/10 07:00:15;;;;;;;58.45;24.45;;;0.20;96.80;;;;;;5077128;28;20049;-75
2022/01/10 07:02:43;;;;;;;78.10;27.83;;;0.10;96.80;;;;;;5091727;28;20040;-76
2022/01/10 07:05:13;;;;;;;95.90;28.08;;;0.10;96.70;;;;;;5092137;28;20029;-75
2022/01/10 07:07:40;;;;;;;88.50;27.75;;;0.20;96.70;;;;;;5095610;28;20055;-74
2022/01/10 07:10:09;;;;;;;123.03;32.72;;;0.20;96.70;;;;;;5092591;28;20067;-75
2022/01/10 07:12:36;;;;;;;60.97;25.83;;;0.20;96.70;;;;;;5115939;28;20064;-76
2022/01/10 07:15:04;;;;;;;57.88;23.35;;;0.20;96.70;;;;;;5114708;28;20879;-75
2022/01/10 07:17:30;;;;;;;58.67;23.20;;;0.20;96.70;;;;;;5125502;27;20102;-76
2022/01/10 07:19:57;;;;;;;68.88;24.55;;;0.20;96.70;;;;;;5116564;28;20064;-76
2022/01/10 07:22:24;;;;;;;69.10;25.65;;;0.20;96.60;;;;;;5113789;28;22297;-76
2022/01/10 07:24:54;;;;;;;62.97;24.85;;;0.20;96.50;;;;;;5115142;28;20028;-75
2022/01/10 07:27:21;;;;;;;59.80;25.55;;;0.20;96.50;;;;;;5120467;27;20070;-77
2022/01/10 07:29:50;;;;;;;52.38;23.27;;;0.20;96.50;;;;;;5116615;27;20037;-75
2022/01/10 07:32:18;;;;;;;77.45;26.13;;;0.20;96.60;;;;;;5106766;28;20882;-76
2022/01/10 07:34:45;;;;;;;58.97;23.83;;;0.20;96.50;;;;;;5116192;28;20075;-74
2022/01/10 07:37:12;;;;;;;65.80;23.48;;;0.20;96.50;;;;;;5126605;28;20093;-74
2022/01/10 07:39:42;;;;;;;99.03;27.60;;;0.20;96.50;;;;;;5114616;27;20860;-75
2022/01/10 07:42:09;;;;;;;71.03;25.17;;;0.20;96.50;;;;;;5118951;28;20041;-76
2022/01/10 07:44:36;;;;;;;66.25;25.75;;;0.20;96.50;;;;;;5117946;28;20029;-74
2022/01/10 07:47:03;;;;;;;100.30;28.02;;;0.20;96.50;;;;;;5107561;28;20071;-76
2022/01/10 07:49:30;;;;;;;69.80;24.73;;;0.20;96.40;;;;;;5113773;28;20116;-77
2022/01/10 07:51:57;;;;;;;50.67;22.42;;;0.20;96.50;;;;;;5112479;27;20058;-75
2022/01/10 07:54:30;;;;;;;58.72;23.33;;;0.10;96.30;;;;;;5111132;28;20029;-76
2022/01/10 07:56:56;;;;;;;61.50;22.15;;;0.10;96.20;;;;;;5113154;28;20049;-77
2022/01/10 07:59:23;;;;;;;72.57;25.05;;;0.10;96.20;;;;;;5108411;28;20057;-76
2022/01/10 08:01:50;;;;;;;58.50;22.63;;;0.10;96.10;;;;;;5117784;28;20040;-76
2022/01/10 08:04:17;;;;;;;61.58;23.48;;;0.00;96.10;;;;;;5114188;28;20032;-77
2022/01/10 08:06:47;;;;;;;49.28;20.02;;;0.00;96.00;;;;;;5118511;28;20684;-77
2022/01/10 08:09:16;;;;;;;62.95;24.67;;;0.00;96.00;;;;;;5111908;28;20067;-78
2022/01/10 08:11:43;;;;;;;106.10;29.85;;;0.10;96.00;;;;;;5114408;28;20486;-75
2022/01/10 08:14:10;;;;;;;58.88;24.58;;;0.10;96.00;;;;;;5114042;28;20970;-78
2022/01/10 08:16:38;;;;;;;65.40;25.90;;;0.10;96.00;;;;;;5103582;28;20115;-76
2022/01/10 08:19:06;;;;;;;55.38;23.38;;;0.10;96.10;;;;;;5116925;28;20048;-76
2022/01/10 08:21:32;;;;;;;86.28;30.23;;;0.20;96.00;;;;;;5134510;27;20097;-77
2022/01/10 08:24:02;;;;;;;113.65;34.20;;;0.20;96.00;;;;;;5114277;28;20253;-76
2022/01/10 08:26:29;;;;;;;71.60;29.48;;;0.30;96.10;;;;;;5111148;28;20059;-77
2022/01/10 08:28:56;;;;;;;79.93;29.52;;;0.40;96.10;;;;;;5109056;28;20108;-76
2022/01/10 08:31:23;;;;;;;74.93;28.65;;;0.40;96.20;;;;;;5115584;28;20035;-75
2022/01/10 08:33:53;;;;;;;81.60;29.50;;;0.50;96.20;;;;;;5117943;28;20020;-75
2022/01/10 08:36:26;;;;;;;91.53;32.60;;;0.50;96.20;;;;;;5113556;28;20164;-76
2022/01/10 08:38:53;;;;;;;78.05;30.60;;;0.60;96.30;;;;;;5115870;27;20064;-76
2022/01/10 08:41:22;;;;;;;82.50;28.20;;;0.60;96.40;;;;;;5107304;28;20028;-76
2022/01/10 08:43:49;;;;;;;72.50;25.40;;;0.70;96.30;;;;;;5119360;28;20036;-75
2022/01/10 08:46:18;;;;;;;59.33;24.55;;;0.70;96.30;;;;;;5115573;28;20051;-75
2022/01/10 08:48:51;;;;;;;56.92;23.73;;;0.70;96.20;;;;;;5133540;28;20586;-77
2022/01/10 08:51:18;;;;;;;60.15;24.05;;;0.70;96.20;;;;;;5100253;28;20056;-77
2022/01/10 08:53:51;;;;;;;66.13;23.73;;;0.80;96.10;;;;;;5114161;28;20013;-75
2022/01/10 08:56:18;;;;;;;65.85;26.10;;;0.80;96.10;;;;;;5116107;28;20044;-75
2022/01/10 08:58:47;;;;;;;56.30;24.92;;;0.80;96.00;;;;;;5120041;28;20055;-77
2022/01/10 09:01:14;;;;;;;71.35;28.30;;;0.90;96.20;;;;;;5105484;28;20037;-77
2022/01/10 09:03:41;;;;;;;66.55;27.30;;;1.00;96.10;;;;;;5113293;27;20036;-77
2022/01/10 09:06:08;;;;;;;56.50;26.05;;;1.00;96.20;;;;;;5114691;28;20044;-77
2022/01/10 09:08:50;;;;;;;60.67;26.75;;;1.10;96.20;;;;;;5110590;28;20056;-76
2022/01/10 09:11:17;;;;;;;57.10;26.42;;;1.20;96.30;;;;;;5107608;28;20057;-77
2022/01/10 09:13:47;;;;;;;60.67;24.90;;;1.30;96.30;;;;;;5093904;27;20047;-77
2022/01/10 09:16:17;;;;;;;65.53;26.13;;;1.30;96.30;;;;;;5079155;28;20030;-76
2022/01/10 09:18:46;;;;;;;55.55;26.17;;;1.40;96.20;;;;;;5102254;28;20045;-77
2022/01/10 09:21:13;;;;;;;48.97;24.05;;;1.40;96.20;;;;;;5094820;28;20029;-78
2022/01/10 09:23:40;;;;;;;55.38;26.15;;;1.50;96.10;;;;;;5093316;28;20029;-76
2022/01/10 09:26:07;;;;;;;57.35;27.45;;;1.60;96.10;;;;;;5088216;28;20079;-76
2022/01/10 09:28:34;;;;;;;58.03;27.35;;;1.60;96.10;;;;;;5102261;27;20021;-78
2022/01/10 09:31:02;;;;;;;55.28;26.08;;;1.70;96.00;;;;;;5092672;27;20037;-77
2022/01/10 09:33:31;;;;;;;59.67;27.23;;;1.70;96.00;;;;;;5090037;28;20280;-78
2022/01/10 09:36:00;;;;;;;64.68;27.85;;;1.80;95.90;;;;;;5088380;28;20095;-77
2022/01/10 09:38:38;;;;;;;53.63;26.75;;;1.80;95.80;;;;;;5093595;28;20061;-78
2022/01/10 09:41:06;;;;;;;57.72;28.45;;;1.80;95.80;;;;;;5100470;27;20460;-78
2022/01/10 09:43:38;;;;;;;60.60;27.42;;;1.90;95.80;;;;;;5093859;28;20037;-77
2022/01/10 09:46:05;;;;;;;46.72;25.15;;;1.90;95.80;;;;;;5096626;28;20059;-77
2022/01/10 09:48:35;;;;;;;56.75;27.08;;;1.90;95.60;;;;;;5097652;28;20049;-77
2022/01/10 09:51:24;;;;;;;62.22;27.02;;;1.90;95.50;;;;;;5095676;27;20041;-78
2022/01/10 09:53:56;;;;;;;56.65;26.80;;;2.00;95.40;;;;;;5091329;27;20089;-79
2022/01/10 09:56:23;;;;;;;62.15;28.23;;;2.10;95.60;;;;;;5098916;27;20052;-78
2022/01/10 09:58:53;;;;;;;53.78;26.38;;;2.20;95.50;;;;;;5099034;27;20044;-78
2022/01/10 10:01:21;;;;;;;59.80;25.25;;;2.20;95.60;;;;;;5091959;28;20048;-79
2022/01/10 10:03:49;;;;;;;46.13;23.80;;;2.20;95.40;;;;;;5087813;28;20057;-79
2022/01/10 10:06:17;;;;;;;55.55;26.58;;;2.20;95.30;;;;;;5084213;28;20029;-79
2022/01/10 10:08:45;;;;;;;58.40;26.77;;;2.30;95.20;;;;;;5095812;27;20072;-79
2022/01/10 10:11:13;;;;;;;60.88;26.60;;;2.40;95.20;;;;;;5076810;27;20054;-79
2022/01/10 10:13:54;;;;;;;54.55;25.65;;;2.40;95.30;;;;;;5123974;27;20052;-78
2022/01/10 10:16:22;;;;;;;47.75;25.05;;;2.50;95.30;;;;;;5115888;28;20048;-78
2022/01/10 10:18:50;;;;;;;52.95;24.48;;;2.60;95.20;;;;;;5111004;27;20047;-79
2022/01/10 10:21:19;;;;;;;56.08;25.25;;;2.70;95.20;;;;;;5115289;27;20114;-80
2022/01/10 10:23:50;;;;;;;63.28;28.70;;;2.70;95.20;;;;;;5122664;27;20021;-77
2022/01/10 10:26:20;;;;;;;55.50;24.00;;;2.80;95.00;;;;;;5118238;28;20055;-78
2022/01/10 10:28:49;;;;;;;51.97;23.50;;;2.80;94.80;;;;;;5122365;27;20049;-80
2022/01/10 10:31:41;;;;;;;54.08;27.63;;;2.80;94.50;;;;;;5122862;27;20980;-78
2022/01/10 10:34:17;;;;;;;47.50;22.67;;;2.90;94.60;;;;;;5138072;27;20052;-78
2022/01/10 10:36:57;;;;;;;49.78;24.27;;;3.00;94.50;;;;;;5119145;27;20062;-76
2022/01/10 10:39:27;;;;;;;37.50;21.83;;;3.10;94.20;;;;;;5112492;28;20075;-79
2022/01/10 10:41:55;;;;;;;47.42;21.48;;;3.20;94.50;;;;;;5110119;27;20039;-78
2022/01/10 10:44:23;;;;;;;52.03;24.88;;;3.10;93.30;;;;;;5116856;28;20052;-79
2022/01/10 10:46:51;;;;;;;47.05;22.85;;;3.20;93.70;;;;;;5112937;28;20031;-79
2022/01/10 10:49:24;;;;;;;51.70;25.45;;;3.30;93.60;;;;;;5119824;28;20016;-78
2022/01/10 10:51:56;;;;;;;42.33;20.02;;;3.50;94.20;;;;;;5108536;27;20048;-77
2022/01/10 10:54:24;;;;;;;44.65;21.95;;;3.40;91.60;;;;;;5114119;28;20051;-78
2022/01/10 10:56:51;;;;;;;48.38;24.85;;;3.40;92.30;;;;;;5109732;28;20029;-78
2022/01/10 10:59:17;;;;;;;43.78;21.88;;;3.50;93.20;;;;;;5115223;27;20055;-78
2022/01/10 11:01:52;;;;;;;43.92;22.52;;;3.60;93.00;;;;;;5119757;28;20056;-78
2022/01/10 11:04:19;;;;;;;45.45;21.48;;;3.60;93.00;;;;;;5108024;28;20072;-78
2022/01/10 11:06:51;;;;;;;46.63;22.13;;;3.50;92.50;;;;;;5123089;27;20048;-78
2022/01/10 11:09:18;;;;;;;37.63;21.13;;;3.50;92.30;;;;;;5117742;27;20032;-79
2022/01/10 11:11:49;;;;;;;47.42;24.23;;;3.50;92.90;;;;;;5121145;27;20060;-79
2022/01/10 11:14:18;;;;;;;48.20;23.92;;;3.60;93.20;;;;;;5117929;27;20035;-78
2022/01/10 11:16:52;;;;;;;43.70;23.20;;;3.60;92.90;;;;;;5101051;27;20043;-78
2022/01/10 11:19:28;;;;;;;42.22;20.13;;;3.60;93.20;;;;;;5104594;27;20070;-78
2022/01/10 11:22:15;;;;;;;39.55;22.00;;;3.60;92.90;;;;;;5112197;27;20044;-79
2022/01/10 11:24:58;;;;;;;42.50;21.80;;;3.70;92.80;;;;;;5112449;27;20059;-79
2022/01/10 11:27:34;;;;;;;46.80;21.67;;;3.70;92.10;;;;;;5113347;27;20025;-78
2022/01/10 11:30:23;;;;;;;46.03;20.88;;;3.70;92.40;;;;;;5104588;27;20033;-79
2022/01/10 11:32:57;;;;;;;44.97;23.08;;;3.80;92.80;;;;;;5093036;28;20074;-79
2022/01/10 11:35:52;;;;;;;50.58;24.52;;;3.80;92.90;;;;;;5108333;28;20056;-78
2022/01/10 11:38:39;;;;;;;43.15;23.35;;;4.00;93.30;;;;;;5110596;27;20070;-79
2022/01/10 11:41:28;;;;;;;45.15;19.33;;;4.10;92.70;;;;;;5121052;27;20040;-79
2022/01/10 11:44:08;;;;;;;51.72;21.15;;;4.10;92.40;;;;;;5094160;27;20037;-79
2022/01/10 11:46:39;;;;;;;38.95;18.58;;;4.10;92.30;;;;;;5109781;27;20056;-79
2022/01/10 11:49:09;;;;;;;42.78;20.95;;;4.10;91.80;;;;;;5131000;27;20050;-80
2022/01/10 11:51:49;;;;;;;38.67;18.48;;;4.00;91.00;;;;;;5110607;28;20055;-78
2022/01/10 11:54:26;;;;;;;38.95;20.63;;;4.00;91.00;;;;;;5100920;27;20024;-78
2022/01/10 11:56:58;;;;;;;39.38;19.38;;;4.00;91.60;;;;;;5119447;27;20063;-80
2022/01/10 11:59:28;;;;;;;40.40;19.13;;;4.10;92.20;;;;;;5122088;27;20051;-78
2022/01/10 12:02:03;;;;;;;38.30;18.38;;;4.20;91.90;;;;;;5110355;28;20049;-78
2022/01/10 12:04:40;;;;;;;37.30;17.73;;;4.40;90.90;;;;;;5095874;28;20090;-78
2022/01/10 12:07:10;;;;;;;32.60;16.58;;;4.60;90.00;;;;;;5096983;28;20041;-78
2022/01/10 12:09:38;;;;;;;37.00;15.57;;;4.80;89.80;;;;;;5110612;27;20098;-78
2022/01/10 12:12:12;;;;;;;36.13;18.10;;;4.70;87.60;;;;;;5107065;27;20088;-79
2022/01/10 12:14:40;;;;;;;39.78;18.00;;;4.70;89.70;;;;;;5096382;28;20072;-78
2022/01/10 12:17:08;;;;;;;37.65;18.73;;;4.80;90.20;;;;;;5086419;28;20056;-79
2022/01/10 12:19:36;;;;;;;36.75;18.52;;;4.80;89.20;;;;;;5092807;28;20070;-79
2022/01/10 12:22:07;;;;;;;36.20;18.98;;;4.90;89.70;;;;;;5091155;28;20033;-77
2022/01/10 12:24:35;;;;;;;36.30;17.98;;;5.10;90.30;;;;;;5080833;28;20079;-78
2022/01/10 12:27:06;;;;;;;35.13;15.43;;;5.10;90.30;;;;;;5078153;28;20045;-79
2022/01/10 12:29:35;;;;;;;32.90;16.95;;;5.20;88.40;;;;;;5083729;28;20051;-79
2022/01/10 12:32:05;;;;;;;36.80;16.50;;;5.30;88.80;;;;;;5072089;28;20101;-78
2022/01/10 12:34:32;;;;;;;34.75;15.82;;;5.40;89.20;;;;;;5097442;28;20101;-78
2022/01/10 12:36:59;;;;;;;34.75;15.77;;;5.50;88.10;;;;;;5086829;28;20159;-80
2022/01/10 12:39:27;;;;;;;33.67;17.38;;;5.60;87.70;;;;;;5091635;28;20048;-79
2022/01/10 12:41:57;;;;;;;39.78;17.73;;;5.70;88.10;;;;;;5087703;28;20041;-78
2022/01/10 12:44:27;;;;;;;36.25;15.77;;;5.70;87.30;;;;;;5086849;28;20021;-79
2022/01/10 12:46:58;;;;;;;29.40;14.55;;;5.70;88.00;;;;;;5096644;28;20121;-78
2022/01/10 12:49:24;;;;;;;31.73;15.18;;;5.80;88.30;;;;;;5091706;28;20029;-80
2022/01/10 12:51:54;;;;;;;33.03;16.00;;;5.80;86.70;;;;;;5090159;28;20038;-79
2022/01/10 12:54:26;;;;;;;30.45;15.73;;;5.90;86.70;;;;;;5097060;28;20041;-79